createdAt,value
2022-09-27T00:01:13.238Z,0.90
2022-09-27T00:03:40.989Z,2.03
2022-09-27T00:06:22.432Z,1.03
2022-09-27T00:08:49.592Z,1.20
2022-09-27T00:11:39.354Z,1.97
2022-09-27T00:14:08.522Z,1.20
2022-09-27T00:16:39.442Z,1.03
2022-09-27T00:19:20.516Z,1.10
2022-09-27T00:21:48.520Z,0.93
2022-09-27T00:24:20.226Z,1.10
2022-09-27T00:26:48.670Z,1.73
2022-09-27T00:29:19.031Z,0.97
2022-09-27T00:31:47.089Z,0.93
2022-09-27T00:34:22.368Z,0.93
2022-09-27T00:36:50.364Z,1.83
2022-09-27T00:39:17.864Z,2.13
2022-09-27T00:41:45.197Z,2.60
2022-09-27T00:44:27.553Z,2.53
2022-09-27T00:47:25.985Z,3.47
2022-09-27T00:50:02.713Z,1.80
2022-09-27T00:52:51.457Z,3.03
2022-09-27T00:55:30.418Z,3.50
2022-09-27T00:57:58.159Z,3.70
2022-09-27T01:00:25.431Z,4.07
2022-09-27T01:02:56.299Z,2.00
2022-09-27T01:05:28.457Z,2.30
2022-09-27T01:07:55.721Z,2.20
2022-09-27T01:10:23.962Z,1.70
2022-09-27T01:13:30.186Z,1.63
2022-09-27T01:16:24.049Z,1.90
2022-09-27T01:19:31.009Z,2.27
2022-09-27T01:22:13.928Z,2.33
2022-09-27T01:25:08.752Z,2.50
2022-09-27T01:28:12.810Z,1.60
2022-09-27T01:31:00.217Z,1.53
2022-09-27T01:34:05.710Z,1.70
2022-09-27T01:37:00.240Z,1.60
2022-09-27T01:39:52.870Z,1.53
2022-09-27T01:42:52.931Z,1.30
2022-09-27T01:45:26.265Z,1.30
2022-09-27T01:48:03.605Z,1.13
2022-09-27T01:50:44.764Z,1.10
2022-09-27T01:53:28.974Z,1.30
2022-09-27T01:55:58.569Z,1.80
2022-09-27T01:58:46.656Z,1.10
2022-09-27T02:01:18.791Z,1.40
2022-09-27T02:03:51.893Z,1.20
2022-09-27T02:06:31.213Z,1.00
2022-09-27T02:09:10.566Z,1.20
2022-09-27T02:11:45.489Z,1.10
2022-09-27T02:14:22.016Z,1.50
2022-09-27T02:16:54.884Z,1.53
2022-09-27T02:20:16.944Z,1.17
2022-09-27T02:23:17.286Z,1.00
2022-09-27T02:25:56.994Z,1.00
2022-09-27T02:28:45.711Z,1.20
2022-09-27T02:31:13.009Z,4.43
2022-09-27T02:33:52.788Z,1.20
2022-09-27T02:36:21.582Z,1.07
2022-09-27T02:38:49.823Z,0.90
2022-09-27T02:41:22.912Z,3.40
2022-09-27T02:43:57.731Z,0.90
2022-09-27T02:46:36.190Z,1.07
2022-09-27T02:49:19.659Z,1.37
2022-09-27T02:52:18.604Z,1.30
2022-09-27T02:55:22.221Z,1.60
2022-09-27T02:58:30.699Z,1.40
2022-09-27T03:01:33.581Z,1.23
2022-09-27T03:04:27.861Z,1.03
2022-09-27T03:07:00.123Z,1.07
2022-09-27T03:09:40.111Z,1.10
2022-09-27T03:12:07.280Z,1.70
2022-09-27T03:14:34.396Z,1.27
2022-09-27T03:17:01.648Z,2.10
2022-09-27T03:19:28.876Z,5.00
2022-09-27T03:21:56.091Z,6.17
2022-09-27T03:24:23.451Z,3.20
2022-09-27T03:26:50.812Z,3.50
2022-09-27T03:29:20.665Z,4.33
2022-09-27T03:31:47.905Z,3.30
2022-09-27T03:34:15.076Z,4.03
2022-09-27T03:36:42.301Z,3.00
2022-09-27T03:39:09.527Z,2.70
2022-09-27T03:41:37.229Z,3.37
2022-09-27T03:44:04.481Z,3.50
2022-09-27T03:46:31.786Z,2.93
2022-09-27T03:48:59.060Z,3.23
2022-09-27T03:51:26.838Z,3.20
2022-09-27T03:53:54.097Z,3.37
2022-09-27T03:56:21.214Z,2.63
2022-09-27T03:58:48.489Z,2.60
2022-09-27T04:01:15.867Z,2.50
2022-09-27T04:03:43.183Z,2.60
2022-09-27T04:06:10.402Z,2.67
2022-09-27T04:08:37.797Z,2.57
2022-09-27T04:11:05.080Z,2.30
2022-09-27T04:13:32.287Z,5.30
2022-09-27T04:15:59.667Z,2.23
2022-09-27T04:18:26.929Z,2.67
2022-09-27T04:20:54.153Z,3.63
2022-09-27T04:23:21.344Z,2.70
2022-09-27T04:25:48.515Z,3.87
2022-09-27T04:28:15.781Z,2.20
2022-09-27T04:30:43.050Z,2.40
2022-09-27T04:33:10.351Z,2.00
2022-09-27T04:35:37.533Z,1.80
2022-09-27T04:38:05.198Z,2.50
2022-09-27T04:40:35.383Z,2.33
2022-09-27T04:43:02.894Z,2.77
2022-09-27T04:45:30.445Z,2.00
2022-09-27T04:47:57.711Z,3.10
2022-09-27T04:50:25.149Z,1.80
2022-09-27T04:52:54.266Z,2.30
2022-09-27T04:55:22.416Z,4.30
2022-09-27T04:57:50.068Z,3.50
2022-09-27T05:00:17.940Z,3.00
2022-09-27T05:02:46.520Z,2.20
2022-09-27T05:05:14.862Z,2.30
2022-09-27T05:07:42.214Z,2.20
2022-09-27T05:10:10.329Z,2.67
2022-09-27T05:12:37.649Z,2.20
2022-09-27T05:15:05.764Z,3.20
2022-09-27T05:17:32.992Z,5.37
2022-09-27T05:20:00.335Z,5.63
2022-09-27T05:22:27.525Z,6.70
2022-09-27T05:24:54.629Z,7.20
2022-09-27T05:27:21.869Z,5.50
2022-09-27T05:29:49.115Z,7.30
2022-09-27T05:32:16.604Z,5.50
2022-09-27T05:34:43.851Z,5.43
2022-09-27T05:37:11.100Z,5.50
2022-09-27T05:39:38.231Z,4.30
2022-09-27T05:42:05.520Z,3.63
2022-09-27T05:44:32.713Z,4.47
2022-09-27T05:47:03.564Z,10.83
2022-09-27T05:49:31.034Z,2.70
2022-09-27T05:51:58.353Z,5.50
2022-09-27T05:54:25.826Z,3.40
2022-09-27T05:56:57.239Z,3.23
2022-09-27T05:59:26.274Z,3.73
2022-09-27T06:01:54.643Z,3.13
2022-09-27T06:04:22.356Z,3.70
2022-09-27T06:06:49.637Z,2.77
2022-09-27T06:09:17.751Z,2.27
2022-09-27T06:11:45.652Z,2.47
2022-09-27T06:14:14.125Z,3.07
2022-09-27T06:16:41.405Z,2.80
2022-09-27T06:19:08.968Z,2.27
2022-09-27T06:21:36.147Z,2.10
2022-09-27T06:24:03.779Z,3.37
2022-09-27T06:26:31.000Z,3.40
2022-09-27T06:28:58.228Z,2.80
2022-09-27T06:31:25.412Z,2.33
2022-09-27T06:33:52.607Z,2.00
2022-09-27T06:36:19.773Z,3.20
2022-09-27T06:38:46.904Z,3.20
2022-09-27T06:41:14.084Z,3.20
2022-09-27T06:43:41.234Z,4.47
2022-09-27T06:46:08.829Z,4.33
2022-09-27T06:48:36.420Z,3.80
2022-09-27T06:51:04.371Z,3.47
2022-09-27T06:53:31.947Z,3.83
2022-09-27T06:56:03.277Z,3.13
2022-09-27T06:58:30.536Z,3.27
2022-09-27T07:00:57.937Z,3.47
2022-09-27T07:03:28.476Z,4.57
2022-09-27T07:06:06.468Z,3.20
2022-09-27T07:08:33.825Z,3.90
2022-09-27T07:11:07.460Z,3.43
2022-09-27T07:13:35.675Z,4.63
2022-09-27T07:16:03.449Z,3.63
2022-09-27T07:18:30.751Z,3.17
2022-09-27T07:21:00.707Z,2.83
2022-09-27T07:23:28.211Z,2.70
2022-09-27T07:25:55.590Z,2.50
2022-09-27T07:28:23.192Z,2.10
2022-09-27T07:30:55.565Z,3.60
2022-09-27T07:33:23.273Z,2.20
2022-09-27T07:35:50.545Z,2.80
2022-09-27T07:38:17.745Z,2.97
2022-09-27T07:40:44.981Z,3.00
2022-09-27T07:43:12.478Z,3.50
2022-09-27T07:45:40.051Z,3.60
2022-09-27T07:48:11.305Z,5.07
2022-09-27T07:50:38.558Z,5.57
2022-09-27T07:53:05.903Z,8.13
2022-09-27T07:55:33.591Z,8.33
2022-09-27T07:58:10.554Z,6.77
2022-09-27T08:00:39.580Z,5.80
2022-09-27T08:03:13.566Z,7.50
2022-09-27T08:05:40.783Z,4.63
2022-09-27T08:08:08.527Z,3.37
2022-09-27T08:10:36.321Z,5.60
2022-09-27T08:13:05.467Z,3.50
2022-09-27T08:15:34.722Z,3.80
2022-09-27T08:18:02.177Z,4.90
2022-09-27T08:20:29.395Z,8.53
2022-09-27T08:22:56.664Z,11.13
2022-09-27T08:25:24.076Z,6.77
2022-09-27T08:27:59.780Z,6.37
2022-09-27T08:30:29.025Z,4.47
2022-09-27T08:33:01.907Z,3.80
2022-09-27T08:35:29.818Z,3.43
2022-09-27T08:37:59.868Z,1.70
2022-09-27T08:41:02.477Z,1.07
2022-09-27T08:44:14.417Z,1.87
2022-09-27T08:47:23.149Z,2.70
2022-09-27T08:50:11.902Z,0.70
2022-09-27T08:52:55.625Z,0.90
2022-09-27T08:55:45.242Z,4.50
2022-09-27T08:58:31.178Z,7.20
2022-09-27T09:01:04.447Z,2.00
2022-09-27T09:03:37.935Z,0.70
2022-09-27T09:06:29.182Z,1.43
2022-09-27T09:09:27.177Z,0.90
2022-09-27T09:12:12.122Z,8.10
2022-09-27T09:15:21.769Z,0.80
2022-09-27T09:18:02.472Z,0.50
2022-09-27T09:21:07.115Z,0.60
2022-09-27T09:23:52.734Z,0.90
2022-09-27T09:26:40.398Z,0.90
2022-09-27T09:29:31.477Z,0.70
2022-09-27T09:32:34.764Z,0.90
2022-09-27T09:35:10.856Z,0.80
2022-09-27T09:37:58.060Z,0.67
2022-09-27T09:40:42.503Z,1.30
2022-09-27T09:43:32.667Z,1.27
2022-09-27T09:46:22.923Z,2.77
2022-09-27T09:49:00.407Z,1.77
2022-09-27T09:51:36.292Z,0.90
2022-09-27T09:54:30.557Z,0.77
2022-09-27T09:57:33.922Z,1.00
2022-09-27T10:00:13.189Z,0.80
2022-09-27T10:02:44.819Z,0.83
2022-09-27T10:05:20.881Z,0.70
2022-09-27T10:07:51.233Z,0.60
2022-09-27T10:10:21.565Z,1.67
2022-09-27T10:12:50.580Z,2.67
2022-09-27T10:15:22.318Z,2.60
2022-09-27T10:17:54.628Z,1.50
2022-09-27T10:20:42.262Z,1.73
2022-09-27T10:23:17.519Z,1.80
2022-09-27T10:25:57.721Z,2.30
2022-09-27T10:28:43.882Z,1.90
2022-09-27T10:31:17.151Z,2.00
2022-09-27T10:34:02.389Z,6.13
2022-09-27T10:36:34.402Z,2.27
2022-09-27T10:39:05.945Z,1.20
2022-09-27T10:41:41.892Z,1.03
2022-09-27T10:44:32.141Z,1.10
2022-09-27T10:47:09.789Z,0.83
2022-09-27T10:49:41.345Z,0.63
2022-09-27T10:52:23.556Z,0.70
2022-09-27T10:54:57.971Z,0.70
2022-09-27T10:57:28.868Z,0.87
2022-09-27T11:00:08.438Z,0.93
2022-09-27T11:02:38.533Z,0.70
2022-09-27T11:05:37.571Z,0.90
2022-09-27T11:08:20.056Z,0.90
2022-09-27T11:11:14.649Z,2.00
2022-09-27T11:13:57.771Z,1.13
2022-09-27T11:16:50.899Z,1.03
2022-09-27T11:19:45.992Z,0.80
2022-09-27T11:22:28.950Z,0.60
2022-09-27T11:25:38.459Z,0.67
2022-09-27T11:28:19.666Z,0.60
2022-09-27T11:31:02.128Z,0.70
2022-09-27T11:33:57.590Z,0.53
2022-09-27T11:37:13.874Z,0.47
2022-09-27T11:40:16.076Z,0.70
2022-09-27T11:42:58.437Z,0.60
2022-09-27T11:46:03.190Z,0.60
2022-09-27T11:48:44.362Z,0.70
2022-09-27T11:51:37.551Z,0.70
2022-09-27T11:54:22.545Z,0.73
2022-09-27T11:57:11.256Z,0.70
2022-09-27T11:59:56.866Z,0.80
2022-09-27T12:02:58.225Z,0.60
2022-09-27T12:05:57.758Z,1.07
2022-09-27T12:08:54.177Z,0.60
2022-09-27T12:11:38.920Z,0.50
2022-09-27T12:14:38.927Z,0.80
2022-09-27T12:17:15.433Z,0.67
2022-09-27T12:19:50.170Z,0.70
2022-09-27T12:22:58.255Z,0.77
2022-09-27T12:25:32.194Z,0.77
2022-09-27T12:28:18.276Z,0.60
2022-09-27T12:31:10.840Z,1.30
2022-09-27T12:34:28.080Z,1.00
2022-09-27T12:37:24.508Z,0.87
2022-09-27T12:40:26.307Z,0.80
2022-09-27T12:43:24.456Z,1.50
2022-09-27T12:46:13.309Z,0.70
2022-09-27T12:49:27.839Z,0.70
2022-09-27T12:52:08.653Z,0.70
2022-09-27T12:55:13.683Z,1.30
2022-09-27T12:58:20.903Z,1.43
2022-09-27T13:01:23.001Z,5.53
2022-09-27T13:04:32.111Z,2.20
2022-09-27T13:07:30.537Z,1.17
2022-09-27T13:10:31.025Z,4.17
2022-09-27T13:12:59.955Z,2.43
2022-09-27T13:15:35.083Z,0.70
2022-09-27T13:18:07.122Z,0.63
2022-09-27T13:20:39.194Z,0.70
2022-09-27T13:23:18.744Z,0.77
2022-09-27T13:25:54.253Z,0.83
2022-09-27T13:28:31.804Z,6.30
2022-09-27T13:31:09.382Z,0.63
2022-09-27T13:33:52.632Z,0.90
2022-09-27T13:36:24.370Z,0.90
2022-09-27T13:39:16.601Z,0.90
2022-09-27T13:41:46.839Z,0.77
2022-09-27T13:44:49.384Z,0.70
2022-09-27T13:47:32.061Z,0.70
2022-09-27T13:50:39.528Z,1.60
2022-09-27T13:53:40.422Z,0.50
2022-09-27T13:56:49.279Z,0.90
2022-09-27T13:59:32.364Z,0.70
2022-09-27T14:02:27.163Z,0.50
2022-09-27T14:04:57.985Z,1.13
2022-09-27T14:07:37.126Z,0.70
2022-09-27T14:10:07.049Z,1.00
2022-09-27T14:12:39.292Z,0.70
2022-09-27T14:15:12.694Z,0.80
2022-09-27T14:17:43.454Z,0.90
2022-09-27T14:20:42.233Z,0.80
2022-09-27T14:23:25.340Z,0.90
2022-09-27T14:25:55.320Z,1.27
2022-09-27T14:28:26.273Z,0.97
2022-09-27T14:31:23.794Z,3.13
2022-09-27T14:34:05.573Z,0.80
2022-09-27T14:36:36.253Z,0.70
2022-09-27T14:39:21.540Z,0.83
2022-09-27T14:41:48.826Z,0.80
2022-09-27T14:44:25.889Z,2.00
2022-09-27T14:47:26.193Z,0.90
2022-09-27T14:50:17.012Z,2.10
2022-09-27T14:52:44.423Z,1.13
2022-09-27T14:55:19.704Z,0.80
2022-09-27T14:57:59.445Z,1.93
2022-09-27T15:00:33.843Z,0.80
2022-09-27T15:03:05.675Z,0.73
2022-09-27T15:05:35.208Z,1.10
2022-09-27T15:08:06.770Z,0.90
2022-09-27T15:10:37.324Z,0.70
2022-09-27T15:13:06.184Z,0.97
2022-09-27T15:15:38.727Z,0.70
2022-09-27T15:18:34.094Z,1.50
2022-09-27T15:21:02.757Z,1.00
2022-09-27T15:23:37.039Z,3.40
2022-09-27T15:26:27.159Z,0.80
2022-09-27T15:28:54.534Z,2.43
2022-09-27T15:31:35.087Z,2.67
2022-09-27T15:34:04.338Z,1.30
2022-09-27T15:36:58.210Z,0.80
2022-09-27T15:39:38.933Z,1.60
2022-09-27T15:42:13.709Z,1.57
2022-09-27T15:44:47.034Z,1.00
2022-09-27T15:47:32.507Z,0.97
2022-09-27T15:50:15.554Z,1.03
2022-09-27T15:52:48.905Z,0.90
2022-09-27T15:55:18.452Z,0.80
2022-09-27T15:57:54.193Z,1.80
2022-09-27T16:00:22.025Z,2.33
2022-09-27T16:02:49.647Z,1.73
2022-09-27T16:05:17.021Z,1.80
2022-09-27T16:07:44.378Z,1.73
2022-09-27T16:10:18.745Z,0.90
2022-09-27T16:12:49.418Z,1.03
2022-09-27T16:15:18.286Z,1.10
2022-09-27T16:17:46.675Z,2.37
2022-09-27T16:20:25.863Z,1.43
2022-09-27T16:22:58.261Z,0.70
2022-09-27T16:25:27.885Z,1.10
2022-09-27T16:28:02.181Z,0.90
2022-09-27T16:30:30.054Z,0.80
2022-09-27T16:32:57.814Z,0.73
2022-09-27T16:35:26.744Z,0.60
2022-09-27T16:37:54.509Z,0.80
2022-09-27T16:40:22.050Z,2.83
2022-09-27T16:42:49.861Z,2.13
2022-09-27T16:45:19.437Z,1.83
2022-09-27T16:47:47.516Z,2.40
2022-09-27T16:50:15.539Z,2.90
2022-09-27T16:52:43.121Z,5.27
2022-09-27T16:55:10.624Z,2.90
2022-09-27T16:57:37.827Z,1.80
2022-09-27T17:00:06.932Z,2.20
2022-09-27T17:02:34.175Z,1.60
2022-09-27T17:05:01.485Z,2.07
2022-09-27T17:07:28.667Z,1.10
2022-09-27T17:09:56.064Z,2.83
2022-09-27T17:12:23.303Z,2.23
2022-09-27T17:14:51.223Z,8.67
2022-09-27T17:17:18.492Z,3.07
2022-09-27T17:19:45.647Z,2.03
2022-09-27T17:22:12.863Z,3.63
2022-09-27T17:24:40.227Z,4.40
2022-09-27T17:27:07.558Z,5.93
2022-09-27T17:29:34.783Z,5.43
2022-09-27T17:32:02.063Z,1.70
2022-09-27T17:34:29.320Z,1.77
2022-09-27T17:36:56.487Z,4.53
2022-09-27T17:39:23.767Z,11.13
2022-09-27T17:41:51.374Z,21.83
2022-09-27T17:44:19.966Z,3.30
2022-09-27T17:46:47.940Z,2.60
2022-09-27T17:49:15.296Z,1.87
2022-09-27T17:51:46.070Z,3.07
2022-09-27T17:54:14.384Z,3.83
2022-09-27T17:56:43.814Z,5.13
2022-09-27T17:59:14.109Z,7.50
2022-09-27T18:01:42.716Z,6.43
2022-09-27T18:04:14.217Z,6.93
2022-09-27T18:06:45.463Z,13.10
2022-09-27T18:09:17.325Z,17.23
2022-09-27T18:11:45.813Z,14.17
2022-09-27T18:14:14.201Z,16.10
2022-09-27T18:16:43.786Z,10.70
2022-09-27T18:19:17.839Z,11.97
2022-09-27T18:21:46.097Z,10.80
2022-09-27T18:24:14.529Z,7.20
2022-09-27T18:26:44.373Z,4.00
2022-09-27T18:29:16.285Z,4.17
2022-09-27T18:31:48.478Z,3.83
2022-09-27T18:34:19.583Z,5.03
2022-09-27T18:36:48.390Z,4.50
2022-09-27T18:39:19.986Z,4.67
2022-09-27T18:41:49.495Z,3.17
2022-09-27T18:44:21.031Z,2.57
2022-09-27T18:46:50.962Z,2.53
2022-09-27T18:49:23.454Z,2.23
2022-09-27T18:51:55.273Z,2.30
2022-09-27T18:54:23.849Z,2.00
2022-09-27T18:56:53.390Z,1.80
2022-09-27T18:59:23.594Z,2.17
2022-09-27T19:01:53.654Z,2.30
2022-09-27T19:04:23.639Z,2.20
2022-09-27T19:06:56.062Z,3.00
2022-09-27T19:09:24.753Z,3.40
2022-09-27T19:11:52.537Z,3.30
2022-09-27T19:14:22.863Z,3.00
2022-09-27T19:16:51.410Z,1.70
2022-09-27T19:19:22.246Z,1.97
2022-09-27T19:21:49.853Z,1.60
2022-09-27T19:24:19.592Z,1.87
2022-09-27T19:26:49.633Z,1.87
2022-09-27T19:29:18.404Z,1.80
2022-09-27T19:31:50.491Z,1.67
2022-09-27T19:34:18.118Z,1.60
2022-09-27T19:36:45.374Z,1.67
2022-09-27T19:39:13.615Z,1.60
2022-09-27T19:41:45.010Z,1.93
2022-09-27T19:44:14.161Z,1.93
2022-09-27T19:46:43.566Z,2.60
2022-09-27T19:49:12.010Z,2.43
2022-09-27T19:51:39.165Z,2.33
2022-09-27T19:54:10.116Z,4.50
2022-09-27T19:56:37.345Z,1.70
2022-09-27T19:59:07.485Z,1.80
2022-09-27T20:01:35.038Z,1.57
2022-09-27T20:04:04.023Z,1.30
2022-09-27T20:06:32.132Z,1.43
2022-09-27T20:08:59.998Z,2.93
2022-09-27T20:11:27.133Z,5.50
2022-09-27T20:13:54.961Z,18.43
2022-09-27T20:16:26.220Z,12.27
2022-09-27T20:18:56.818Z,9.87
2022-09-27T20:21:31.297Z,7.30
2022-09-27T20:24:02.251Z,6.67
2022-09-27T20:26:32.449Z,5.90
2022-09-27T20:29:04.275Z,5.87
2022-09-27T20:31:38.079Z,3.83
2022-09-27T20:34:14.279Z,4.20
2022-09-27T20:36:44.411Z,2.57
2022-09-27T20:39:15.344Z,2.30
2022-09-27T20:41:47.121Z,2.20
2022-09-27T20:44:18.306Z,3.37
2022-09-27T20:46:47.772Z,2.20
2022-09-27T20:49:19.016Z,2.43
2022-09-27T20:51:48.580Z,3.17
2022-09-27T20:54:16.731Z,11.27
2022-09-27T20:56:47.630Z,4.60
2022-09-27T20:59:19.326Z,4.60
2022-09-27T21:01:49.532Z,2.80
2022-09-27T21:04:19.905Z,2.07
2022-09-27T21:06:47.112Z,2.00
2022-09-27T21:09:15.496Z,2.17
2022-09-27T21:11:42.937Z,1.90
2022-09-27T21:14:10.271Z,2.40
2022-09-27T21:16:37.832Z,2.70
2022-09-27T21:19:05.378Z,2.07
2022-09-27T21:21:32.658Z,2.83
2022-09-27T21:24:01.672Z,2.00
2022-09-27T21:26:33.309Z,1.53
2022-09-27T21:29:07.455Z,2.13
2022-09-27T21:31:35.131Z,1.40
2022-09-27T21:34:05.562Z,1.37
2022-09-27T21:36:36.804Z,1.70
2022-09-27T21:39:07.119Z,1.80
2022-09-27T21:41:34.417Z,1.80
2022-09-27T21:44:04.846Z,1.70
2022-09-27T21:46:32.253Z,3.50
2022-09-27T21:49:01.470Z,3.43
2022-09-27T21:51:34.416Z,3.53
2022-09-27T21:54:05.132Z,4.50
2022-09-27T21:56:35.950Z,3.00
2022-09-27T21:59:03.970Z,4.47
2022-09-27T22:01:34.411Z,8.63
2022-09-27T22:04:05.197Z,6.43
2022-09-27T22:06:38.356Z,8.37
2022-09-27T22:09:13.959Z,10.20
2022-09-27T22:11:43.603Z,7.93
2022-09-27T22:14:12.145Z,5.40
2022-09-27T22:16:39.520Z,5.97
2022-09-27T22:19:06.801Z,4.73
2022-09-27T22:21:37.613Z,3.93
2022-09-27T22:24:10.978Z,2.90
2022-09-27T22:26:40.908Z,3.37
2022-09-27T22:29:08.859Z,4.03
2022-09-27T22:31:37.530Z,1.57
2022-09-27T22:34:08.160Z,1.57
2022-09-27T22:36:35.883Z,1.50
2022-09-27T22:39:03.366Z,1.60
2022-09-27T22:41:30.701Z,1.80
2022-09-27T22:43:58.172Z,1.60
2022-09-27T22:46:25.648Z,1.50
2022-09-27T22:48:53.076Z,1.80
2022-09-27T22:51:20.213Z,1.87
2022-09-27T22:53:47.596Z,1.40
2022-09-27T22:56:20.381Z,1.33
2022-09-27T22:58:49.444Z,1.47
2022-09-27T23:01:25.030Z,1.30
2022-09-27T23:03:54.476Z,1.50
2022-09-27T23:06:23.218Z,1.37
2022-09-27T23:08:51.607Z,1.37
2022-09-27T23:11:22.593Z,1.30
2022-09-27T23:13:51.228Z,1.37
2022-09-27T23:16:23.312Z,1.30
2022-09-27T23:18:56.923Z,2.20
2022-09-27T23:21:25.979Z,1.40
2022-09-27T23:23:56.767Z,1.40
2022-09-27T23:26:26.851Z,1.90
2022-09-27T23:29:00.185Z,1.40
2022-09-27T23:31:33.106Z,1.33
2022-09-27T23:34:04.545Z,2.00
2022-09-27T23:36:31.912Z,1.77
2022-09-27T23:39:00.736Z,1.40
2022-09-27T23:41:27.938Z,1.43
2022-09-27T23:43:55.281Z,1.27
2022-09-27T23:46:22.556Z,1.27
2022-09-27T23:48:49.803Z,1.20
2022-09-27T23:51:16.937Z,1.20
2022-09-27T23:53:44.129Z,1.27
2022-09-27T23:56:16.111Z,1.20
2022-09-27T23:58:46.058Z,1.20
